Time;durP1;ratioP1;P1;durP2;ratioP2;P2;SDS_P1;SDS_P2;PMS_P1;PMS_P2;Temp;Humidity;BMP_temperature;BMP_pressure;BME280_temperature;BME280_humidity;BME280_pressure;Samples;Min_cycle;Max_cycle;Signal;HPM_P1;HPM_P2
2022/04/11 00:01:55;;;;;;;21.70;11.32;;;;;;;6.23;62.78;100427.59;5058551;28;20092;-84
2022/04/11 00:04:22;;;;;;;21.88;10.80;;;;;;;6.22;62.94;100425.06;5012711;28;20068;-84
2022/04/11 00:06:49;;;;;;;21.20;10.45;;;;;;;6.20;62.88;100427.75;4997040;28;20132;-84
2022/04/11 00:09:46;;;;;;;18.52;9.80;;;;;;;6.08;62.72;100415.31;5049188;28;20099;-83
2022/04/11 00:12:12;;;;;;;14.48;8.48;;;;;;;6.16;63.01;100415.72;4993646;28;20065;-84
2022/04/11 00:14:39;;;;;;;18.83;10.10;;;;;;;6.15;62.63;100415.81;5033927;28;20115;-83
2022/04/11 00:17:06;;;;;;;18.27;9.45;;;;;;;6.14;62.63;100409.69;5033724;28;20463;-84
2022/04/11 00:19:33;;;;;;;17.92;9.23;;;;;;;6.12;62.61;100414.22;5022125;28;20057;-84
2022/04/11 00:22:00;;;;;;;14.18;8.95;;;;;;;6.11;62.88;100411.66;5007540;28;20132;-84
2022/04/11 00:24:27;;;;;;;28.50;11.07;;;;;;;6.09;62.60;100409.97;5009376;28;20048;-83
2022/04/11 00:26:53;;;;;;;20.33;10.07;;;;;;;6.08;62.82;100410.91;5033800;28;20527;-83
2022/04/11 00:29:20;;;;;;;18.40;9.45;;;;;;;6.04;62.85;100400.66;5029500;28;20084;-83
2022/04/11 00:31:47;;;;;;;24.40;8.88;;;;;;;6.03;62.62;100413.00;5027487;28;20048;-84
2022/04/11 00:34:14;;;;;;;18.02;9.45;;;;;;;6.01;62.57;100403.47;5028812;28;20045;-84
2022/04/11 00:36:40;;;;;;;21.05;9.25;;;;;;;6.00;62.52;100399.13;5034716;28;20444;-84
2022/04/11 00:39:07;;;;;;;19.98;9.38;;;;;;;6.00;62.76;100399.13;4983756;28;20394;-84
2022/04/11 00:41:34;;;;;;;17.33;8.18;;;;;;;5.99;62.77;100397.44;5029285;28;20041;-84
2022/04/11 00:44:01;;;;;;;19.58;8.90;;;;;;;5.96;62.53;100402.91;4998416;28;20072;-84
2022/04/11 00:46:28;;;;;;;23.00;8.68;;;;;;;5.95;62.73;100399.41;5027520;28;20041;-84
2022/04/11 00:48:54;;;;;;;17.48;9.15;;;;;;;5.94;62.59;100404.78;5063616;28;20507;-84
2022/04/11 00:51:22;;;;;;;25.30;9.95;;;;;;;5.93;62.51;100405.66;5034622;28;20041;-84
2022/04/11 00:53:51;;;;;;;17.08;9.43;;;;;;;5.91;62.48;100399.66;5023531;28;20052;-84
2022/04/11 01:00:04;;;;;;;18.67;9.27;;;;;;;5.83;62.54;100402.75;4991467;28;20580;-83
2022/04/11 01:02:30;;;;;;;22.08;9.40;;;;;;;5.81;62.63;100397.56;4994409;28;20540;-84
2022/04/11 01:04:58;;;;;;;19.45;9.80;;;;;;;5.81;62.62;100400.19;5047590;28;20495;-83
2022/04/11 01:07:24;;;;;;;15.90;8.60;;;;;;;5.80;62.87;100392.38;5016430;28;20111;-83
2022/04/11 01:09:51;;;;;;;19.17;10.30;;;;;;;5.80;62.88;100401.16;5015878;28;20044;-84
2022/04/11 01:12:18;;;;;;;19.60;10.15;;;;;;;5.80;62.75;100397.66;5003892;28;20048;-84
2022/04/11 01:14:45;;;;;;;22.20;9.63;;;;;;;5.76;62.71;100394.34;5011397;28;20053;-84
2022/04/11 01:17:12;;;;;;;17.15;8.70;;;;;;;5.76;62.83;100401.44;4978522;28;20125;-84
2022/04/11 01:19:39;;;;;;;20.20;8.73;;;;;;;5.75;62.85;100399.72;5013242;28;20087;-84
2022/04/11 01:22:06;;;;;;;17.77;9.23;;;;;;;5.73;62.57;100399.81;5013268;28;20492;-83
2022/04/11 01:24:34;;;;;;;19.23;9.45;;;;;;;5.73;62.68;100394.53;5026189;28;20046;-84
2022/04/11 01:27:02;;;;;;;17.88;9.18;;;;;;;5.68;62.58;100391.34;5019412;28;20485;-83
2022/04/11 01:29:29;;;;;;;17.27;8.73;;;;;;;5.66;62.66;100388.78;5016829;28;20118;-84
2022/04/11 01:31:56;;;;;;;18.08;9.48;;;;;;;5.65;62.78;100387.09;5029599;28;20060;-84
2022/04/11 01:34:23;;;;;;;22.65;9.07;;;;;;;5.63;62.56;100396.03;5013277;28;20077;-84
2022/04/11 01:36:49;;;;;;;13.13;8.60;;;;;;;5.63;62.65;100390.75;5026661;28;20444;-83
2022/04/11 01:39:16;;;;;;;17.50;8.27;;;;;;;5.62;62.46;100383.78;5042865;28;20050;-84
2022/04/11 01:42:38;;;;;;;20.58;10.73;;;;;;;5.50;62.60;100384.53;4977240;28;20133;-84
2022/04/11 01:45:09;;;;;;;19.08;9.02;;;;;;;5.57;62.52;100393.75;4993489;28;20591;-81
2022/04/11 01:47:40;;;;;;;23.45;9.55;;;;;;;5.53;62.54;100387.81;5007281;28;20046;-81
2022/04/11 01:50:09;;;;;;;18.55;8.60;;;;;;;5.55;62.90;100385.94;5019319;28;20051;-80
2022/04/11 01:52:37;;;;;;;18.58;9.02;;;;;;;5.55;62.74;100390.38;5042245;28;20091;-82
2022/04/11 01:55:05;;;;;;;22.42;8.75;;;;;;;5.54;62.89;100384.22;5033265;28;20045;-81
2022/04/11 01:57:48;;;;;;;18.90;8.18;;;;;;;5.53;62.83;100384.34;4998689;28;20045;-81
2022/04/11 02:00:15;;;;;;;18.38;8.63;;;;;;;5.52;62.93;100383.50;5031875;28;21548;-81
2022/04/11 02:02:44;;;;;;;23.20;8.63;;;;;;;5.52;63.15;100382.63;5025944;28;20053;-81
2022/04/11 02:05:12;;;;;;;17.33;8.02;;;;;;;5.52;62.77;100380.88;4996448;28;20040;-80
2022/04/11 02:07:39;;;;;;;19.88;8.55;;;;;;;5.51;62.92;100391.47;5033671;28;20136;-84
2022/04/11 02:10:08;;;;;;;14.57;7.95;;;;;;;5.50;62.98;100387.16;5006292;28;20748;-83
2022/04/11 02:12:35;;;;;;;18.42;9.05;;;;;;;5.49;63.21;100383.66;5014899;28;20042;-84
2022/04/11 02:15:02;;;;;;;15.20;9.00;;;;;;;5.47;63.30;100377.66;5027304;28;20059;-84
2022/04/11 02:17:29;;;;;;;18.67;8.85;;;;;;;5.46;63.18;100383.84;5029248;28;20489;-84
2022/04/11 02:20:00;;;;;;;20.55;9.57;;;;;;;5.41;63.21;100370.94;5030500;28;20063;-83
2022/04/11 02:22:27;;;;;;;19.60;9.50;;;;;;;5.43;63.13;100374.34;5043996;28;20496;-84
2022/04/11 02:24:53;;;;;;;19.05;9.38;;;;;;;5.41;63.08;100375.34;5013684;28;20042;-84
2022/04/11 02:27:21;;;;;;;17.05;8.68;;;;;;;5.41;63.41;100370.09;5015841;28;20107;-84
2022/04/11 02:29:48;;;;;;;18.15;9.80;;;;;;;5.40;63.58;100365.78;5046987;28;20493;-84
2022/04/11 02:32:14;;;;;;;16.58;9.43;;;;;;;5.39;63.24;100358.78;5015993;28;20050;-84
2022/04/11 02:34:41;;;;;;;19.05;9.43;;;;;;;5.38;63.21;100355.31;5033522;28;20443;-84
2022/04/11 02:37:08;;;;;;;17.33;9.88;;;;;;;5.36;63.57;100357.19;5006188;28;20042;-84
2022/04/11 02:39:35;;;;;;;22.90;10.15;;;;;;;5.36;63.52;100358.97;4995804;28;20493;-83
2022/04/11 02:42:03;;;;;;;18.63;9.98;;;;;;;5.35;63.46;100352.88;4996248;28;20551;-83
2022/04/11 02:44:30;;;;;;;19.23;9.25;;;;;;;5.32;63.50;100350.41;5008938;28;20093;-84
2022/04/11 02:46:57;;;;;;;18.30;8.63;;;;;;;5.30;63.15;100352.28;5025813;28;20053;-84
2022/04/11 02:49:23;;;;;;;19.42;9.02;;;;;;;5.30;63.25;100354.09;5005742;28;20091;-84
2022/04/11 02:52:02;;;;;;;14.88;8.13;;;;;;;5.27;63.47;100347.22;4986186;28;20117;-84
2022/04/11 02:54:29;;;;;;;19.40;8.48;;;;;;;5.26;63.55;100356.03;5032014;28;20608;-84
2022/04/11 02:56:55;;;;;;;18.80;8.73;;;;;;;5.27;63.74;100352.47;5015085;28;20409;-84
2022/04/11 02:59:23;;;;;;;13.30;8.63;;;;;;;5.26;63.27;100342.88;5029614;28;20037;-84
2022/04/11 03:01:53;;;;;;;12.38;7.82;;;;;;;5.26;63.35;100336.75;5001107;28;20683;-84
2022/04/11 03:04:21;;;;;;;19.27;9.05;;;;;;;5.24;63.62;100336.88;5005001;28;20042;-84
2022/04/11 03:06:56;;;;;;;18.33;9.35;;;;;;;5.22;63.44;100325.56;5023601;28;20714;-84
2022/04/11 03:09:25;;;;;;;17.70;7.70;;;;;;;5.20;63.58;100319.53;5039990;28;20492;-83
2022/04/11 03:11:52;;;;;;;16.45;8.35;;;;;;;5.18;63.62;100324.88;5022107;28;20079;-84
2022/04/11 03:14:19;;;;;;;18.00;8.77;;;;;;;5.19;63.59;100326.59;5010490;28;20460;-84
2022/04/11 03:16:45;;;;;;;16.55;9.05;;;;;;;5.18;63.36;100330.16;5031331;28;20088;-84
2022/04/11 03:19:13;;;;;;;17.00;7.97;;;;;;;5.16;63.34;100324.13;5014661;28;20045;-84
2022/04/11 03:21:41;;;;;;;19.48;9.15;;;;;;;5.16;63.59;100318.00;5018109;28;20481;-84
2022/04/11 03:24:12;;;;;;;14.90;8.02;;;;;;;5.13;63.46;100313.75;5028674;28;20129;-84
2022/04/11 03:26:40;;;;;;;16.90;7.88;;;;;;;5.12;63.52;100312.09;5026002;28;20049;-84
2022/04/11 03:29:13;;;;;;;15.40;8.70;;;;;;;5.11;63.45;100315.63;4989701;28;20056;-85
2022/04/11 03:31:40;;;;;;;14.88;8.15;;;;;;;5.10;63.47;100307.84;5025122;28;20365;-84
2022/04/11 03:34:09;;;;;;;21.25;8.57;;;;;;;5.10;63.39;100307.84;5036866;28;20072;-84
2022/04/11 03:37:01;;;;;;;14.68;7.57;;;;;;;4.98;63.68;100312.03;5008284;28;20096;-85
2022/04/11 03:39:34;;;;;;;20.05;8.57;;;;;;;5.04;63.53;100306.44;4988483;28;20760;-84
2022/04/11 03:42:01;;;;;;;16.90;7.43;;;;;;;5.05;63.69;100307.28;5031092;28;20041;-84
2022/04/11 03:44:31;;;;;;;17.17;8.43;;;;;;;5.03;63.63;100296.81;5019249;28;20037;-84
2022/04/11 03:47:03;;;;;;;15.18;7.95;;;;;;;5.03;63.67;100302.06;5030771;28;20382;-84
2022/04/11 03:49:33;;;;;;;20.05;7.85;;;;;;;5.02;63.83;100291.66;5009855;28;20042;-86
2022/04/11 03:52:18;;;;;;;25.67;8.73;;;;;;;4.95;63.88;100297.25;5010306;28;21072;-84
2022/04/11 03:54:46;;;;;;;14.35;7.82;;;;;;;4.99;63.77;100290.91;4998336;28;20076;-84
2022/04/11 03:57:15;;;;;;;18.85;10.43;;;;;;;4.96;63.89;100298.97;5042315;28;20044;-84
2022/04/11 03:59:43;;;;;;;17.23;8.07;;;;;;;4.98;63.68;100294.44;5025457;28;20069;-84
2022/04/11 04:02:11;;;;;;;19.35;8.45;;;;;;;4.96;63.63;100293.72;5003111;28;20945;-85
2022/04/11 04:04:38;;;;;;;19.92;8.27;;;;;;;4.95;63.82;100286.72;5008220;28;20147;-85
2022/04/11 04:07:06;;;;;;;16.63;8.85;;;;;;;4.93;63.76;100275.44;5041877;28;20072;-86
2022/04/11 04:10:03;;;;;;;15.93;8.40;;;;;;;4.84;63.78;100283.03;4997581;28;20064;-86
2022/04/11 04:12:30;;;;;;;21.85;8.48;;;;;;;4.91;63.89;100279.09;4986409;28;20045;-81
2022/04/11 04:15:06;;;;;;;16.65;7.75;;;;;;;4.90;64.12;100278.25;5026765;28;20052;-81
2022/04/11 04:17:33;;;;;;;15.43;9.13;;;;;;;4.89;63.85;100268.69;5014123;28;20048;-82
2022/04/11 04:20:05;;;;;;;19.83;8.32;;;;;;;4.88;64.05;100277.50;5003568;28;20056;-82
2022/04/11 04:22:33;;;;;;;16.23;8.48;;;;;;;4.87;64.00;100275.81;5024850;28;20049;-83
2022/04/11 04:25:00;;;;;;;21.40;9.13;;;;;;;4.87;64.17;100272.34;5015115;28;20054;-82
2022/04/11 04:27:27;;;;;;;21.88;10.43;;;;;;;4.87;64.21;100269.72;5040780;28;20549;-81
2022/04/11 04:29:55;;;;;;;16.70;8.80;;;;;;;4.85;64.39;100272.41;5005752;28;20053;-81
2022/04/11 04:32:22;;;;;;;18.52;9.43;;;;;;;4.85;64.50;100272.41;5014676;28;20049;-81
2022/04/11 04:34:50;;;;;;;17.85;8.70;;;;;;;4.84;64.06;100270.72;5031080;28;20112;-81
2022/04/11 04:37:20;;;;;;;25.33;8.85;;;;;;;4.83;64.08;100270.81;5014679;28;20128;-81
2022/04/11 04:39:48;;;;;;;19.63;8.30;;;;;;;4.83;64.35;100268.19;5013901;28;20049;-81
2022/04/11 04:42:21;;;;;;;19.63;9.18;;;;;;;4.77;64.24;100272.00;5018489;28;20044;-81
2022/04/11 04:44:50;;;;;;;24.02;9.77;;;;;;;4.79;64.10;100267.50;5002473;28;20127;-79
2022/04/11 04:47:17;;;;;;;24.98;10.55;;;;;;;4.77;64.19;100264.97;5027303;28;20136;-79
2022/04/11 04:49:45;;;;;;;20.52;9.18;;;;;;;4.77;64.10;100264.13;5043895;28;20120;-79
2022/04/11 04:52:14;;;;;;;17.08;8.85;;;;;;;4.74;64.35;100259.88;5010579;28;20100;-79
2022/04/11 04:54:57;;;;;;;18.13;9.88;;;;;;;4.69;64.32;100259.31;4995099;28;20041;-79
2022/04/11 04:57:25;;;;;;;16.27;9.45;;;;;;;4.71;64.31;100264.47;5008153;28;20034;-79
2022/04/11 04:59:52;;;;;;;17.13;10.23;;;;;;;4.70;64.10;100254.88;5015957;28;20132;-80
2022/04/11 05:02:37;;;;;;;19.30;10.68;;;;;;;4.64;64.17;100248.19;5025244;28;20045;-80
2022/04/11 05:05:09;;;;;;;22.10;10.85;;;;;;;4.67;64.18;100253.28;5031062;28;20049;-79
2022/04/11 05:07:37;;;;;;;20.75;10.23;;;;;;;4.65;64.37;100255.13;5030983;28;20111;-79
2022/04/11 05:10:09;;;;;;;22.63;10.65;;;;;;;4.64;64.41;100249.97;5011260;28;20594;-79
2022/04/11 05:12:41;;;;;;;18.63;10.18;;;;;;;4.65;64.57;100246.41;5042609;28;20061;-79
2022/04/11 05:15:08;;;;;;;20.73;12.23;;;;;;;4.65;64.54;100254.28;4996168;28;20038;-79
2022/04/11 05:17:35;;;;;;;25.23;12.57;;;;;;;4.65;64.71;100255.13;5046306;28;20038;-80
2022/04/11 05:20:05;;;;;;;23.40;12.13;;;;;;;4.64;64.38;100249.97;5023761;28;20045;-79
2022/04/11 05:22:32;;;;;;;19.85;11.60;;;;;;;4.64;64.61;100258.72;5061591;28;20060;-80
2022/04/11 05:24:59;;;;;;;22.33;11.20;;;;;;;4.64;64.85;100256.09;5011794;28;20053;-79
2022/04/11 05:27:26;;;;;;;22.10;11.35;;;;;;;4.64;65.01;100247.34;5018807;28;20500;-79
2022/04/11 05:29:53;;;;;;;26.13;11.18;;;;;;;4.64;65.10;100256.09;5020640;28;20053;-81
2022/04/11 05:32:20;;;;;;;24.52;10.38;;;;;;;4.65;65.23;100257.75;5008737;28;20053;-79
2022/04/11 05:34:47;;;;;;;21.45;11.18;;;;;;;4.66;64.93;100253.38;5012357;28;20546;-79
2022/04/11 05:37:14;;;;;;;24.55;11.65;;;;;;;4.66;65.39;100253.38;5044859;28;20064;-79
2022/04/11 05:39:41;;;;;;;26.33;11.40;;;;;;;4.68;65.32;100267.25;5025299;28;20445;-79
2022/04/11 05:42:08;;;;;;;21.60;10.98;;;;;;;4.68;65.26;100259.38;5007463;28;20072;-79
2022/04/11 05:44:38;;;;;;;21.20;10.52;;;;;;;4.67;65.11;100257.69;5042439;28;20049;-80
2022/04/11 05:47:05;;;;;;;26.05;11.18;;;;;;;4.68;65.47;100254.13;5023102;28;20381;-82
2022/04/11 05:49:40;;;;;;;24.67;10.30;;;;;;;4.69;65.80;100255.81;5027264;28;20051;-79
2022/04/11 05:52:08;;;;;;;25.67;11.07;;;;;;;4.71;65.78;100260.06;5009316;28;20393;-81
2022/04/11 05:54:40;;;;;;;29.58;13.23;;;;;;;4.70;65.92;100260.13;5053072;28;20048;-79
2022/04/11 05:57:08;;;;;;;29.17;13.05;;;;;;;4.70;65.87;100268.88;5027450;28;20497;-80
2022/04/11 05:59:34;;;;;;;29.08;12.68;;;;;;;4.71;66.19;100260.06;5030311;28;20140;-79
2022/04/11 06:02:01;;;;;;;30.77;14.35;;;;;;;4.70;66.28;100268.88;5025452;28;20056;-79
2022/04/11 06:04:28;;;;;;;32.75;14.27;;;;;;;4.70;66.24;100268.88;5010434;28;20045;-80
2022/04/11 06:06:55;;;;;;;34.15;15.63;;;;;;;4.65;66.76;100263.03;5013107;28;20053;-79
2022/04/11 06:09:22;;;;;;;32.67;15.32;;;;;;;4.59;66.64;100273.91;5002268;28;20100;-79
2022/04/11 06:11:49;;;;;;;34.30;14.80;;;;;;;4.59;66.60;100273.91;4993289;28;20053;-80
2022/04/11 06:14:17;;;;;;;29.33;14.68;;;;;;;4.63;66.79;100272.81;5011739;28;20067;-79
2022/04/11 06:16:44;;;;;;;32.15;14.18;;;;;;;4.61;66.69;100268.56;4999252;28;20057;-79
2022/04/11 06:19:12;;;;;;;34.25;15.65;;;;;;;4.62;66.76;100265.00;5010571;28;20096;-79
2022/04/11 06:21:39;;;;;;;34.95;15.90;;;;;;;4.64;66.43;100266.59;5014278;28;20041;-78
2022/04/11 06:24:07;;;;;;;36.08;16.58;;;;;;;4.65;66.34;100272.72;5025799;28;20040;-79
2022/04/11 06:26:34;;;;;;;30.08;14.63;;;;;;;4.65;66.57;100275.34;5039398;28;20073;-79
2022/04/11 06:29:00;;;;;;;42.25;16.50;;;;;;;4.66;66.59;100277.91;5014308;28;20073;-79
2022/04/11 06:31:27;;;;;;;40.45;16.02;;;;;;;4.68;66.54;100262.88;4988548;28;20128;-79
2022/04/11 06:34:03;;;;;;;35.40;17.50;;;;;;;4.62;66.96;100268.47;5001238;28;20053;-80
2022/04/11 06:36:32;;;;;;;30.25;15.15;;;;;;;4.63;66.99;100266.69;5038202;28;20046;-79
2022/04/11 06:38:58;;;;;;;26.70;13.68;;;;;;;4.68;66.78;100277.78;5011801;28;20044;-79
2022/04/11 06:41:33;;;;;;;38.17;16.55;;;;;;;4.64;67.25;100279.75;5013274;28;20500;-79
2022/04/11 06:44:01;;;;;;;30.85;14.63;;;;;;;4.72;67.15;100269.63;4986605;28;20045;-79
2022/04/11 06:46:34;;;;;;;35.80;15.30;;;;;;;4.73;66.77;100273.13;4980131;28;20042;-79
2022/04/11 06:49:01;;;;;;;36.67;15.05;;;;;;;4.72;67.38;100276.69;5018349;28;20060;-79
2022/04/11 06:51:29;;;;;;;38.72;17.52;;;;;;;4.67;67.43;100279.56;5030128;28;20045;-79
2022/04/11 06:53:56;;;;;;;37.45;17.25;;;;;;;4.72;67.70;100276.69;5028535;28;20052;-80
2022/04/11 06:56:23;;;;;;;39.25;17.13;;;;;;;4.68;68.67;100277.78;5024311;28;20531;-79
2022/04/11 06:58:50;;;;;;;33.53;15.75;;;;;;;4.75;68.01;100271.25;5025039;28;20055;-79
2022/04/11 07:01:16;;;;;;;33.85;16.35;;;;;;;4.81;67.77;100273.53;5018137;28;20572;-80
2022/04/11 07:03:51;;;;;;;33.03;16.20;;;;;;;4.84;68.15;100273.38;5055098;28;20452;-79
2022/04/11 07:06:18;;;;;;;41.78;16.95;;;;;;;4.88;67.87;100276.66;5040237;28;20443;-79
2022/04/11 07:08:44;;;;;;;36.35;16.88;;;;;;;4.95;68.42;100273.56;5032421;28;20056;-79
2022/04/11 07:11:11;;;;;;;35.92;16.30;;;;;;;4.90;68.65;100267.72;5026389;28;20038;-79
2022/04/11 07:13:53;;;;;;;33.97;15.82;;;;;;;4.95;68.65;100270.94;5015973;28;20485;-79
2022/04/11 07:16:20;;;;;;;27.10;13.48;;;;;;;4.99;68.52;100274.25;5030859;28;20124;-80
2022/04/11 07:18:47;;;;;;;29.95;14.63;;;;;;;4.99;68.58;100271.63;5012501;28;20044;-79
2022/04/11 07:21:14;;;;;;;31.08;12.68;;;;;;;5.03;67.84;100259.13;5026829;28;20044;-79
2022/04/11 07:23:41;;;;;;;24.98;12.85;;;;;;;5.03;67.68;100267.03;5010555;28;20452;-79
2022/04/11 07:26:07;;;;;;;27.52;12.38;;;;;;;5.08;67.71;100272.88;5041227;28;20049;-79
2022/04/11 07:28:44;;;;;;;26.75;12.02;;;;;;;5.10;67.68;100271.00;5022044;28;20503;-79
2022/04/11 07:31:10;;;;;;;26.60;12.43;;;;;;;5.16;67.42;100262.72;5021634;28;20048;-79
2022/04/11 07:33:37;;;;;;;28.08;13.70;;;;;;;5.16;67.52;100266.19;5007526;28;20042;-79
2022/04/11 07:36:04;;;;;;;30.52;13.80;;;;;;;5.17;67.60;100264.44;5025472;28;20057;-79
2022/04/11 07:38:31;;;;;;;32.13;13.45;;;;;;;5.20;68.22;100258.97;5059808;28;20056;-80
2022/04/11 07:40:57;;;;;;;28.17;12.90;;;;;;;5.26;67.69;100255.13;5028438;28;20041;-79
2022/04/11 07:43:24;;;;;;;27.17;14.35;;;;;;;5.31;67.77;100253.91;5028914;28;20041;-79
2022/04/11 07:45:51;;;;;;;31.60;14.25;;;;;;;5.27;68.04;100252.41;5007363;28;20041;-82
2022/04/11 07:48:18;;;;;;;31.20;14.25;;;;;;;5.27;68.15;100256.84;5028051;28;20415;-79
2022/04/11 07:50:44;;;;;;;29.63;12.70;;;;;;;5.35;68.32;100257.22;5019886;28;20064;-80
2022/04/11 07:53:11;;;;;;;36.15;13.60;;;;;;;5.33;67.98;100252.03;5042546;28;20044;-80
2022/04/11 07:55:38;;;;;;;29.00;13.77;;;;;;;5.37;68.18;100247.47;5020402;28;20043;-80
2022/04/11 07:58:04;;;;;;;25.67;13.07;;;;;;;5.40;68.22;100239.38;5024346;28;20046;-80
2022/04/11 08:00:31;;;;;;;27.30;11.77;;;;;;;5.46;67.85;100246.88;5026732;28;20040;-80
2022/04/11 08:02:58;;;;;;;21.60;11.32;;;;;;;5.51;67.44;100238.69;5033544;28;20051;-80
2022/04/11 08:05:25;;;;;;;27.52;11.75;;;;;;;5.55;67.25;100243.69;5024164;28;20053;-80
2022/04/11 08:07:52;;;;;;;23.10;11.32;;;;;;;5.57;67.03;100240.94;5002230;28;20052;-80
2022/04/11 08:10:19;;;;;;;27.55;11.52;;;;;;;5.60;67.22;100241.63;5058964;28;20046;-80
2022/04/11 08:12:52;;;;;;;25.08;11.35;;;;;;;5.55;66.92;100237.59;5015905;28;20107;-80
2022/04/11 08:15:33;;;;;;;27.75;10.68;;;;;;;5.64;67.07;100239.63;5029295;28;20119;-80
2022/04/11 08:18:01;;;;;;;24.17;11.55;;;;;;;5.66;66.92;100238.59;5018807;28;20103;-79
2022/04/11 08:20:28;;;;;;;20.35;10.05;;;;;;;5.67;66.93;100239.44;5009849;28;20141;-80
2022/04/11 08:22:55;;;;;;;20.05;10.38;;;;;;;5.73;67.17;100238.25;5023656;28;20507;-80
2022/04/11 08:25:22;;;;;;;22.80;10.73;;;;;;;5.79;67.04;100229.94;5004938;28;20045;-80
2022/04/11 08:27:51;;;;;;;20.50;9.85;;;;;;;5.79;67.28;100227.31;5029390;28;20053;-80
2022/04/11 08:30:17;;;;;;;16.88;9.05;;;;;;;5.84;67.10;100223.44;5010086;28;20103;-81
2022/04/11 08:32:47;;;;;;;25.45;9.98;;;;;;;5.91;67.17;100223.06;5025853;28;20069;-79
2022/04/11 08:35:15;;;;;;;21.25;10.30;;;;;;;5.97;67.31;100222.72;5031564;28;20041;-79
2022/04/11 08:37:41;;;;;;;21.05;10.57;;;;;;;6.01;67.29;100224.22;5014371;28;20038;-80
2022/04/11 08:40:16;;;;;;;21.92;9.77;;;;;;;6.01;66.80;100217.16;5015886;28;20117;-79
2022/04/11 08:42:44;;;;;;;23.42;10.05;;;;;;;6.05;67.41;100221.25;5001700;28;20049;-80
2022/04/11 08:45:13;;;;;;;16.23;8.13;;;;;;;6.02;67.56;100218.81;5010414;28;20061;-80
2022/04/11 08:47:42;;;;;;;19.42;8.43;;;;;;;6.07;67.07;100214.09;5032874;28;20041;-80
2022/04/11 08:50:09;;;;;;;18.85;8.82;;;;;;;6.09;66.80;100222.78;5014002;28;20555;-79
2022/04/11 08:52:36;;;;;;;19.73;7.95;;;;;;;6.12;66.20;100219.09;5018027;28;20081;-80
2022/04/11 08:55:05;;;;;;;20.48;8.05;;;;;;;6.13;66.41;100215.53;5060471;28;20067;-80
2022/04/11 08:57:32;;;;;;;17.73;8.85;;;;;;;6.16;66.83;100211.84;5014788;28;20558;-80
2022/04/11 09:00:11;;;;;;;19.60;8.98;;;;;;;6.18;66.95;100207.31;5018126;28;20067;-80
2022/04/11 09:02:38;;;;;;;15.52;8.05;;;;;;;6.19;66.33;100204.59;5009528;28;20092;-79
2022/04/11 09:05:05;;;;;;;13.23;7.45;;;;;;;6.24;65.65;100197.22;5027606;28;20045;-79
2022/04/11 09:07:50;;;;;;;13.80;8.07;;;;;;;6.35;65.34;100190.41;5027530;28;20046;-80
2022/04/11 09:10:18;;;;;;;14.90;7.75;;;;;;;6.29;65.76;100196.94;5014160;28;20099;-80
2022/04/11 09:12:50;;;;;;;19.63;8.80;;;;;;;6.35;65.94;100193.03;5045896;28;20045;-80
2022/04/11 09:15:18;;;;;;;18.83;8.20;;;;;;;6.34;65.96;100183.44;5004559;28;20033;-79
2022/04/11 09:17:46;;;;;;;19.67;9.57;;;;;;;6.34;66.05;100189.56;5023723;28;20077;-80
2022/04/11 09:20:18;;;;;;;16.95;7.85;;;;;;;6.35;66.02;100179.84;5042042;28;20120;-79
2022/04/11 09:22:45;;;;;;;15.88;7.90;;;;;;;6.35;66.10;100182.50;5026078;28;20065;-80
2022/04/11 09:25:14;;;;;;;16.55;8.07;;;;;;;6.57;65.19;100184.56;5029605;28;20049;-79
2022/04/11 09:27:42;;;;;;;16.33;7.53;;;;;;;6.51;65.45;100184.03;5014710;28;20068;-80
2022/04/11 09:30:31;;;;;;;15.70;8.23;;;;;;;6.43;64.23;100178.38;5020218;28;20045;-80
2022/04/11 09:32:57;;;;;;;20.60;7.68;;;;;;;6.57;65.54;100174.84;5039021;28;20041;-82
2022/04/11 09:35:29;;;;;;;18.77;8.45;;;;;;;6.53;65.38;100163.66;5056325;28;20067;-82
2022/04/11 09:38:15;;;;;;;18.08;8.13;;;;;;;6.49;64.96;100170.09;5000953;28;20060;-82
2022/04/11 09:40:50;;;;;;;16.67;7.32;;;;;;;6.54;65.27;100164.50;5028655;28;20456;-82
2022/04/11 09:43:27;;;;;;;17.65;7.82;;;;;;;6.56;64.71;100156.47;5009927;28;20503;-82
2022/04/11 09:45:55;;;;;;;15.80;8.27;;;;;;;6.65;64.73;100161.16;5033490;28;20041;-82
2022/04/11 09:48:26;;;;;;;18.27;8.10;;;;;;;6.68;64.50;100150.38;5025301;28;20597;-82
2022/04/11 09:50:54;;;;;;;18.75;7.93;;;;;;;6.70;65.10;100156.41;5000881;28;20135;-82
2022/04/11 09:53:33;;;;;;;22.63;9.18;;;;;;;6.77;64.78;100152.41;5028099;28;20125;-82
2022/04/11 09:56:04;;;;;;;10.98;6.43;;;;;;;6.77;63.39;100138.34;5012456;28;20053;-82
2022/04/11 09:58:36;;;;;;;12.50;6.45;;;;;;;6.76;63.88;100145.44;5014982;28;20064;-82
2022/04/11 10:01:04;;;;;;;13.85;6.25;;;;;;;6.78;64.21;100142.69;5042000;28;20125;-82
2022/04/11 10:03:31;;;;;;;14.25;6.55;;;;;;;6.82;63.95;100129.19;5008684;28;20075;-82
2022/04/11 10:06:01;;;;;;;16.88;6.90;;;;;;;6.84;63.87;100126.44;5023832;28;23660;-82
2022/04/11 10:08:28;;;;;;;14.95;6.68;;;;;;;6.85;63.37;100136.06;5028278;28;20124;-82
2022/04/11 10:10:56;;;;;;;12.65;5.88;;;;;;;6.87;63.80;100136.78;5017339;28;20041;-82
2022/04/11 10:13:23;;;;;;;16.52;6.50;;;;;;;6.90;64.13;100129.50;5027522;28;20099;-82
2022/04/11 10:15:51;;;;;;;18.15;7.47;;;;;;;6.95;63.90;100131.84;5024609;28;20037;-82
2022/04/11 10:18:25;;;;;;;16.08;7.70;;;;;;;6.94;63.35;100119.56;5030502;28;20507;-82
2022/04/11 10:20:57;;;;;;;12.77;5.80;;;;;;;6.95;63.84;100116.00;5018467;28;20045;-82
2022/04/11 10:23:52;;;;;;;13.20;6.68;;;;;;;6.94;62.90;100111.66;5033831;28;20171;-82
2022/04/11 10:26:19;;;;;;;10.38;5.13;;;;;;;7.16;62.04;100106.56;5032986;28;20136;-82
2022/04/11 10:28:48;;;;;;;10.75;5.28;;;;;;;7.08;62.28;100103.63;5027535;28;20060;-82
2022/04/11 10:31:15;;;;;;;6.93;4.60;;;;;;;7.09;62.28;100101.81;5019016;28;20038;-82
2022/04/11 10:33:49;;;;;;;15.52;5.80;;;;;;;7.15;62.63;100099.63;5035176;28;20102;-82
2022/04/11 10:36:31;;;;;;;16.92;4.90;;;;;;;7.11;61.75;100099.94;5019933;28;20042;-82
2022/04/11 10:39:12;;;;;;;12.93;5.95;;;;;;;7.09;60.38;100093.91;4997009;28;20052;-82
2022/04/11 10:41:54;;;;;;;11.73;5.80;;;;;;;7.12;60.67;100102.47;5028475;28;20041;-82
2022/04/11 10:44:42;;;;;;;13.27;6.32;;;;;;;7.16;60.87;100100.44;5025083;28;20041;-83
2022/04/11 10:47:12;;;;;;;11.88;5.03;;;;;;;7.39;61.77;100102.31;5043234;28;20052;-82
2022/04/11 10:49:48;;;;;;;7.80;3.78;;;;;;;7.29;58.04;100090.72;5062772;28;20131;-82
2022/04/11 10:52:33;;;;;;;9.23;4.05;;;;;;;7.30;59.16;100080.97;5027145;28;20056;-83
2022/04/11 10:55:06;;;;;;;10.07;5.00;;;;;;;7.34;59.71;100083.31;5027708;28;20529;-83
2022/04/11 10:57:39;;;;;;;7.57;4.45;;;;;;;7.46;60.19;100080.75;5033772;28;20064;-82
2022/04/11 11:00:14;;;;;;;10.85;4.97;;;;;;;7.45;59.78;100071.97;5023380;28;20044;-82
2022/04/11 11:02:52;;;;;;;9.68;3.67;;;;;;;7.43;59.35;100068.59;5008283;28;20480;-82
2022/04/11 11:05:27;;;;;;;11.85;4.80;;;;;;;7.49;59.21;100068.16;5021936;28;20472;-80
2022/04/11 11:08:09;;;;;;;9.35;4.05;;;;;;;7.47;59.71;100070.06;5060257;28;20488;-79
2022/04/11 11:10:56;;;;;;;9.85;4.93;;;;;;;7.45;59.66;100056.09;5022686;28;20044;-79
2022/04/11 11:13:41;;;;;;;7.47;4.30;;;;;;;7.56;60.63;100064.13;5005422;28;20073;-79
2022/04/11 11:16:14;;;;;;;9.73;5.28;;;;;;;7.69;60.63;100056.16;5011811;28;20378;-79
2022/04/11 11:19:01;;;;;;;10.27;5.30;;;;;;;7.66;60.82;100050.22;5042723;28;20128;-79
2022/04/11 11:21:28;;;;;;;9.43;5.05;;;;;;;7.68;60.83;100049.16;5023931;28;20163;-79
2022/04/11 11:24:03;;;;;;;8.95;4.82;;;;;;;7.64;60.58;100045.06;5022677;28;20049;-80
2022/04/11 11:26:45;;;;;;;7.93;4.22;;;;;;;7.64;59.62;100047.72;5008220;28;20048;-80
2022/04/11 11:29:15;;;;;;;13.05;5.70;;;;;;;7.77;58.62;100037.91;5033119;28;20053;-82
2022/04/11 11:31:43;;;;;;;8.00;4.20;;;;;;;7.79;60.30;100038.66;5005555;28;20054;-80
2022/04/11 11:34:12;;;;;;;11.80;4.47;;;;;;;7.87;59.58;100026.69;5013631;28;20048;-79
2022/04/11 11:36:39;;;;;;;10.68;4.63;;;;;;;7.86;60.32;100014.41;5055314;28;20048;-79
2022/04/11 11:39:11;;;;;;;15.45;6.57;;;;;;;7.95;62.92;100013.72;5021028;28;20041;-79